Time;durP1;ratioP1;P1;durP2;ratioP2;P2;SDS_P1;SDS_P2;PMS_P1;PMS_P2;Temp;Humidity;BMP_temperature;BMP_pressure;BME280_temperature;BME280_humidity;BME280_pressure;Samples;Min_cycle;Max_cycle;Signal;HPM_P1;HPM_P2
2022/07/12 00:00:21;;;;;;;1.35;0.70;;;26.00;96.70;;;;;;4872478;29;20520;-81
2022/07/12 00:02:51;;;;;;;2.22;0.65;;;25.90;96.70;;;;;;4874913;29;20049;-81
2022/07/12 00:05:19;;;;;;;1.77;0.80;;;25.90;96.70;;;;;;4872739;29;20063;-80
2022/07/12 00:07:48;;;;;;;1.65;0.70;;;25.70;96.70;;;;;;4872730;29;20556;-81
2022/07/12 00:10:17;;;;;;;1.45;0.50;;;25.70;96.70;;;;;;4874148;29;20052;-81
2022/07/12 00:12:51;;;;;;;0.93;0.70;;;25.60;96.70;;;;;;4872626;29;20057;-80
2022/07/12 00:15:20;;;;;;;1.17;0.73;;;25.50;96.70;;;;;;4871077;29;20053;-82
2022/07/12 00:17:48;;;;;;;1.10;0.70;;;25.40;96.70;;;;;;4875256;29;20052;-81
2022/07/12 00:20:18;;;;;;;0.95;0.68;;;25.30;96.70;;;;;;4860234;29;20044;-81
2022/07/12 00:22:46;;;;;;;1.42;0.60;;;25.30;96.70;;;;;;4875395;29;20060;-82
2022/07/12 00:25:14;;;;;;;1.50;0.68;;;25.30;96.70;;;;;;4875260;29;20052;-82
2022/07/12 00:27:43;;;;;;;3.05;0.80;;;25.40;96.70;;;;;;4859918;29;20733;-82
2022/07/12 00:30:11;;;;;;;1.67;0.80;;;25.50;96.70;;;;;;4877121;29;20091;-82
2022/07/12 00:32:39;;;;;;;2.85;0.95;;;25.50;96.70;;;;;;4876575;29;20064;-83
2022/07/12 00:35:08;;;;;;;1.00;0.63;;;25.50;96.70;;;;;;4870199;29;20574;-83
2022/07/12 00:37:40;;;;;;;1.70;0.80;;;25.60;96.70;;;;;;4876340;29;20128;-83
2022/07/12 00:40:10;;;;;;;0.93;0.80;;;25.40;96.70;;;;;;4875181;29;20052;-83
2022/07/12 00:42:39;;;;;;;1.77;0.70;;;25.30;96.70;;;;;;4876381;29;20618;-84
2022/07/12 00:45:08;;;;;;;1.55;0.98;;;25.30;96.70;;;;;;4870116;29;20045;-81
2022/07/12 00:47:40;;;;;;;2.10;1.00;;;25.30;96.70;;;;;;4856764;29;20866;-79
2022/07/12 00:50:11;;;;;;;2.33;0.90;;;25.30;96.70;;;;;;4855932;29;20527;-78
2022/07/12 00:52:46;;;;;;;1.38;0.80;;;25.40;96.70;;;;;;4871390;29;20148;-79
2022/07/12 00:55:14;;;;;;;1.55;0.70;;;25.40;96.70;;;;;;4871477;29;20056;-81
2022/07/12 00:57:43;;;;;;;1.85;0.90;;;25.40;96.70;;;;;;4855771;29;20144;-81
2022/07/12 01:00:14;;;;;;;1.83;1.05;;;25.40;96.70;;;;;;4855274;29;20056;-80
2022/07/12 01:02:43;;;;;;;2.83;0.95;;;25.40;96.70;;;;;;4871598;29;20128;-81
2022/07/12 01:05:12;;;;;;;1.52;0.73;;;25.30;96.70;;;;;;4870858;29;20385;-80
2022/07/12 01:07:42;;;;;;;1.20;0.80;;;25.20;96.70;;;;;;4855148;29;20072;-81
2022/07/12 01:10:11;;;;;;;3.70;1.10;;;25.40;96.70;;;;;;4870600;29;20045;-82
2022/07/12 01:12:39;;;;;;;1.73;1.05;;;25.40;96.70;;;;;;4868634;29;20049;-80
2022/07/12 01:15:09;;;;;;;2.33;1.02;;;25.40;96.70;;;;;;4884707;29;20051;-80
2022/07/12 01:17:38;;;;;;;1.40;0.95;;;25.20;96.70;;;;;;4870179;29;20149;-80
2022/07/12 01:20:07;;;;;;;3.20;1.08;;;25.10;96.70;;;;;;4870328;29;20060;-81
2022/07/12 01:22:36;;;;;;;1.73;1.00;;;25.20;96.70;;;;;;4872765;29;20069;-80
2022/07/12 01:25:07;;;;;;;1.88;0.82;;;25.30;96.70;;;;;;4870973;29;20048;-81
2022/07/12 01:27:38;;;;;;;3.50;0.88;;;25.30;96.70;;;;;;4871134;29;20546;-82
2022/07/12 01:30:07;;;;;;;1.20;0.65;;;25.30;96.70;;;;;;4871002;29;20053;-82
2022/07/12 01:32:35;;;;;;;2.05;1.00;;;25.20;96.70;;;;;;4871454;29;20063;-81
2022/07/12 01:35:05;;;;;;;2.28;0.65;;;25.10;96.70;;;;;;4870618;29;20056;-82
2022/07/12 01:37:36;;;;;;;0.95;0.60;;;25.10;96.70;;;;;;4871117;29;20109;-81
2022/07/12 01:40:08;;;;;;;1.45;0.50;;;25.00;96.70;;;;;;4865522;29;20057;-81
2022/07/12 01:42:37;;;;;;;5.60;1.08;;;25.10;96.70;;;;;;4867833;29;20061;-78
2022/07/12 01:45:07;;;;;;;1.70;0.70;;;25.10;96.70;;;;;;4854802;29;20101;-78
2022/07/12 01:47:36;;;;;;;1.45;0.50;;;25.10;96.70;;;;;;4871453;29;20049;-79
2022/07/12 01:50:06;;;;;;;1.20;0.73;;;25.00;96.70;;;;;;4868811;29;20561;-79
2022/07/12 01:52:35;;;;;;;1.15;0.70;;;25.00;96.70;;;;;;4854935;29;20060;-78
2022/07/12 01:55:03;;;;;;;1.33;0.80;;;24.70;96.70;;;;;;4868711;29;20056;-78
2022/07/12 01:57:34;;;;;;;2.67;1.15;;;24.80;96.70;;;;;;4870297;29;20057;-79
2022/07/12 02:00:05;;;;;;;1.77;0.80;;;24.70;96.70;;;;;;4886168;29;20089;-77
2022/07/12 02:02:33;;;;;;;1.20;0.80;;;24.70;96.70;;;;;;4870110;29;20133;-78
2022/07/12 02:05:02;;;;;;;2.13;0.75;;;24.70;96.70;;;;;;4883294;29;20049;-78
2022/07/12 02:07:31;;;;;;;2.35;0.70;;;24.70;96.70;;;;;;4853433;29;20165;-78
2022/07/12 02:09:59;;;;;;;2.67;0.68;;;24.70;96.70;;;;;;4869840;29;20088;-78
2022/07/12 02:12:28;;;;;;;2.08;0.93;;;24.60;96.70;;;;;;4869427;29;20170;-78
2022/07/12 02:14:57;;;;;;;0.80;0.77;;;24.70;96.70;;;;;;4870462;29;20055;-78
2022/07/12 02:17:25;;;;;;;2.80;1.05;;;24.90;96.70;;;;;;4872014;29;20045;-79
2022/07/12 02:19:53;;;;;;;2.15;0.77;;;24.80;96.70;;;;;;4870630;29;20067;-79
2022/07/12 02:22:21;;;;;;;2.28;0.70;;;24.80;96.70;;;;;;4872966;29;20060;-79
2022/07/12 02:24:50;;;;;;;1.48;0.70;;;24.80;96.70;;;;;;4869755;29;20049;-78
2022/07/12 02:27:18;;;;;;;0.93;0.55;;;24.90;96.70;;;;;;4872138;29;20120;-78
2022/07/12 02:29:46;;;;;;;1.20;0.60;;;24.80;96.70;;;;;;4855116;29;20048;-79
2022/07/12 02:32:16;;;;;;;1.10;0.70;;;24.80;96.70;;;;;;4858016;29;20045;-79
2022/07/12 02:34:44;;;;;;;1.15;0.50;;;24.70;96.70;;;;;;4870286;29;20076;-79
2022/07/12 02:37:14;;;;;;;0.98;0.65;;;24.70;96.70;;;;;;4869809;29;20057;-79
2022/07/12 02:39:42;;;;;;;1.92;0.90;;;24.80;96.70;;;;;;4871223;29;20052;-78
2022/07/12 02:42:10;;;;;;;1.35;0.93;;;24.80;96.70;;;;;;4855734;29;20527;-78
2022/07/12 02:44:39;;;;;;;1.75;1.10;;;24.90;96.70;;;;;;4868729;29;20144;-79
2022/07/12 02:47:07;;;;;;;3.65;1.10;;;24.90;96.70;;;;;;4869461;29;20132;-79
2022/07/12 02:49:37;;;;;;;3.60;1.10;;;24.80;96.70;;;;;;4869901;29;20048;-80
2022/07/12 02:52:06;;;;;;;4.07;0.82;;;24.70;96.70;;;;;;4854807;29;20063;-80
2022/07/12 02:54:34;;;;;;;1.95;0.90;;;24.60;96.70;;;;;;4853095;29;20064;-80
2022/07/12 02:57:03;;;;;;;3.63;0.90;;;24.50;96.70;;;;;;4872232;29;20587;-80
2022/07/12 02:59:31;;;;;;;3.22;0.93;;;24.50;96.70;;;;;;4852164;29;20050;-79
2022/07/12 03:01:59;;;;;;;3.00;1.20;;;24.60;96.70;;;;;;4868246;29;20053;-78
2022/07/12 03:04:27;;;;;;;3.28;1.17;;;24.70;96.70;;;;;;4870416;29;20080;-78
2022/07/12 03:06:57;;;;;;;3.17;1.27;;;24.70;96.70;;;;;;4853867;29;20057;-81
2022/07/12 03:09:25;;;;;;;1.92;0.93;;;24.60;96.70;;;;;;4869997;29;20045;-81
2022/07/12 03:11:53;;;;;;;3.50;1.33;;;24.70;96.70;;;;;;4880420;29;20113;-82
2022/07/12 03:14:21;;;;;;;2.45;0.80;;;24.60;96.70;;;;;;4868916;29;20045;-83
2022/07/12 03:16:49;;;;;;;2.72;0.88;;;24.50;96.70;;;;;;4873246;29;20119;-82
2022/07/12 03:19:17;;;;;;;2.55;0.82;;;24.60;96.70;;;;;;4872708;29;20621;-82
2022/07/12 03:21:48;;;;;;;1.00;0.70;;;24.60;96.70;;;;;;4871792;29;20702;-82
2022/07/12 03:24:18;;;;;;;3.67;0.77;;;24.60;96.70;;;;;;4887971;29;20056;-82
2022/07/12 03:26:46;;;;;;;1.98;1.10;;;24.60;96.70;;;;;;4855774;29;20041;-82
2022/07/12 03:29:15;;;;;;;3.75;1.10;;;24.60;96.70;;;;;;4868629;29;20049;-82
2022/07/12 03:31:43;;;;;;;4.25;1.60;;;24.60;96.70;;;;;;4871420;29;20037;-78
2022/07/12 03:34:11;;;;;;;1.73;0.90;;;24.50;96.70;;;;;;4868562;29;20056;-78
2022/07/12 03:36:39;;;;;;;2.22;0.90;;;24.70;96.70;;;;;;4869295;29;20128;-80
2022/07/12 03:39:07;;;;;;;1.30;0.77;;;24.70;96.70;;;;;;4868612;29;20494;-79
2022/07/12 03:41:37;;;;;;;4.10;1.20;;;24.60;96.70;;;;;;4868327;29;20593;-80
2022/07/12 03:44:06;;;;;;;1.98;1.10;;;24.40;96.70;;;;;;4869208;29;20548;-80
2022/07/12 03:46:34;;;;;;;1.10;1.00;;;24.40;96.70;;;;;;4869516;29;20519;-80
2022/07/12 03:49:02;;;;;;;1.27;1.08;;;24.40;96.70;;;;;;4868948;29;20064;-79
2022/07/12 03:51:30;;;;;;;2.00;0.80;;;24.30;96.70;;;;;;4884639;29;20405;-80
2022/07/12 03:53:58;;;;;;;2.17;0.80;;;24.40;96.70;;;;;;4868570;29;20709;-79
2022/07/12 03:59:14;;;;;;;3.22;0.98;;;24.30;96.70;;;;;;4868881;29;20053;-79
2022/07/12 04:01:43;;;;;;;1.25;0.85;;;24.30;96.70;;;;;;4869345;29;20049;-80
2022/07/12 04:04:11;;;;;;;3.13;0.85;;;24.30;96.70;;;;;;4868635;29;20151;-79
2022/07/12 04:06:39;;;;;;;1.90;0.88;;;24.20;96.70;;;;;;4870190;29;20104;-80
2022/07/12 04:09:08;;;;;;;2.30;0.95;;;24.30;96.70;;;;;;4870441;29;20097;-79
2022/07/12 04:11:36;;;;;;;1.25;0.90;;;24.20;96.70;;;;;;4885274;29;20052;-79
2022/07/12 04:14:04;;;;;;;2.17;0.90;;;24.20;96.70;;;;;;4856237;29;20056;-79
2022/07/12 04:16:34;;;;;;;1.73;0.98;;;24.20;96.70;;;;;;4872730;29;20528;-79
2022/07/12 04:19:09;;;;;;;2.22;1.10;;;24.10;96.70;;;;;;4872625;29;20334;-79
2022/07/12 04:21:38;;;;;;;5.20;1.00;;;24.20;96.70;;;;;;4871134;29;20405;-79
2022/07/12 04:24:07;;;;;;;3.53;1.48;;;24.20;96.70;;;;;;4855185;29;20056;-78
2022/07/12 04:26:35;;;;;;;2.38;1.00;;;24.20;96.70;;;;;;4869467;29;20115;-78
2022/07/12 04:29:03;;;;;;;3.60;1.13;;;24.10;96.70;;;;;;4871486;29;20072;-79
2022/07/12 04:31:33;;;;;;;1.80;1.10;;;24.20;96.70;;;;;;4871757;29;20149;-76
2022/07/12 04:34:01;;;;;;;1.50;0.85;;;24.20;96.70;;;;;;4885845;29;20508;-78
2022/07/12 04:36:29;;;;;;;3.83;1.13;;;24.20;96.70;;;;;;4856035;29;20045;-78
2022/07/12 04:38:57;;;;;;;2.22;0.95;;;24.20;96.70;;;;;;4872050;29;20136;-79
2022/07/12 04:41:26;;;;;;;2.00;1.00;;;24.10;96.70;;;;;;4867803;29;20137;-77
2022/07/12 04:43:54;;;;;;;2.47;0.80;;;24.20;96.70;;;;;;4872091;29;20060;-79
2022/07/12 04:46:22;;;;;;;2.65;1.27;;;24.20;96.70;;;;;;4871507;29;20056;-79
2022/07/12 04:48:51;;;;;;;1.92;1.33;;;24.20;96.70;;;;;;4871415;29;20467;-80
2022/07/12 04:51:19;;;;;;;2.85;1.00;;;24.20;96.70;;;;;;4856345;29;20505;-83
2022/07/12 04:53:48;;;;;;;2.20;0.95;;;24.20;96.70;;;;;;4875128;29;20636;-84
2022/07/12 04:56:16;;;;;;;2.22;1.20;;;24.40;96.70;;;;;;4890178;29;20041;-83
2022/07/12 04:58:44;;;;;;;3.17;1.33;;;24.60;96.70;;;;;;4875415;29;20056;-84
2022/07/12 05:01:12;;;;;;;4.15;1.10;;;24.40;96.70;;;;;;4875639;29;20131;-83
2022/07/12 05:03:41;;;;;;;2.28;1.10;;;24.40;96.70;;;;;;4875530;29;20611;-84
2022/07/12 05:06:10;;;;;;;5.90;0.93;;;24.40;96.70;;;;;;4876115;29;20591;-84
2022/07/12 05:08:38;;;;;;;2.08;1.00;;;24.40;96.70;;;;;;4874543;29;20055;-83
2022/07/12 05:11:07;;;;;;;5.20;1.27;;;24.30;96.70;;;;;;4875893;29;20056;-86
2022/07/12 05:13:35;;;;;;;4.30;1.50;;;24.40;96.70;;;;;;4859812;29;20064;-82
2022/07/12 05:16:05;;;;;;;2.17;1.30;;;24.30;96.70;;;;;;4873956;29;20437;-83
2022/07/12 05:18:33;;;;;;;3.75;1.30;;;24.30;96.70;;;;;;4874610;29;20056;-83
2022/07/12 05:21:02;;;;;;;4.32;1.45;;;24.30;96.70;;;;;;4874100;29;20064;-84
2022/07/12 05:23:32;;;;;;;6.65;1.38;;;24.30;96.70;;;;;;4874482;29;20877;-83
2022/07/12 05:26:02;;;;;;;3.28;1.33;;;24.30;96.70;;;;;;4874116;29;20053;-83
2022/07/12 05:28:30;;;;;;;3.08;1.15;;;24.30;96.70;;;;;;4874263;29;20048;-83
2022/07/12 05:31:01;;;;;;;5.15;1.08;;;24.50;96.70;;;;;;4874233;29;20898;-83
2022/07/12 05:33:29;;;;;;;3.22;1.60;;;24.60;96.70;;;;;;4874377;29;20052;-84
2022/07/12 05:35:57;;;;;;;2.47;1.27;;;24.60;96.70;;;;;;4875370;29;20493;-84
2022/07/12 05:38:25;;;;;;;2.53;1.48;;;24.70;96.70;;;;;;4873369;29;20132;-83
2022/07/12 05:40:55;;;;;;;6.63;1.50;;;24.70;96.70;;;;;;4884349;29;20123;-83
2022/07/12 05:43:23;;;;;;;2.85;1.17;;;24.70;96.70;;;;;;4859101;29;20056;-83
2022/07/12 05:45:55;;;;;;;1.70;1.00;;;24.70;96.70;;;;;;4881161;29;20463;-83
2022/07/12 05:48:24;;;;;;;2.60;1.30;;;24.70;96.70;;;;;;4872357;29;20063;-82
2022/07/12 05:50:52;;;;;;;2.40;0.90;;;24.60;96.70;;;;;;4873994;29;20398;-83
2022/07/12 05:53:23;;;;;;;1.80;1.00;;;24.60;96.70;;;;;;4873651;29;20041;-83
2022/07/12 05:55:54;;;;;;;3.45;0.95;;;24.60;96.70;;;;;;4874982;29;20047;-83
2022/07/12 05:58:22;;;;;;;2.05;0.98;;;24.70;96.70;;;;;;4871815;29;20555;-79
2022/07/12 06:00:51;;;;;;;2.38;1.08;;;24.80;96.70;;;;;;4885866;29;20501;-79
2022/07/12 06:03:19;;;;;;;1.83;0.90;;;24.80;96.70;;;;;;4869854;29;20053;-81
2022/07/12 06:05:47;;;;;;;2.88;1.17;;;24.70;96.70;;;;;;4870208;29;20057;-80
2022/07/12 06:08:15;;;;;;;3.20;1.13;;;24.70;96.70;;;;;;4870039;29;20144;-80
2022/07/12 06:10:44;;;;;;;3.55;1.30;;;24.70;96.70;;;;;;4850183;29;20552;-78
2022/07/12 06:13:14;;;;;;;3.95;1.30;;;24.50;96.70;;;;;;4887784;29;20053;-84
2022/07/12 06:15:42;;;;;;;5.10;1.77;;;24.40;96.70;;;;;;4866987;29;20238;-84
2022/07/12 06:18:10;;;;;;;2.03;1.20;;;24.60;96.70;;;;;;4877768;29;20101;-83
2022/07/12 06:20:39;;;;;;;5.25;1.05;;;24.50;96.70;;;;;;4875074;29;20544;-83
2022/07/12 06:23:07;;;;;;;3.75;1.23;;;24.40;96.70;;;;;;4874683;29;20045;-83
2022/07/12 06:25:35;;;;;;;4.95;1.27;;;24.40;96.70;;;;;;4883559;29;20052;-83
2022/07/12 06:28:13;;;;;;;5.05;1.40;;;24.30;96.70;;;;;;4886722;29;20045;-83
2022/07/12 06:30:41;;;;;;;1.17;0.98;;;24.30;96.70;;;;;;4874472;29;20060;-84
2022/07/12 06:33:10;;;;;;;5.93;1.13;;;24.40;96.70;;;;;;4874182;29;20053;-86
2022/07/12 06:35:38;;;;;;;5.68;0.98;;;24.50;96.70;;;;;;4873813;29;20059;-85
2022/07/12 06:38:06;;;;;;;2.22;1.23;;;24.40;96.70;;;;;;4872913;29;20045;-84
2022/07/12 06:40:34;;;;;;;1.73;0.95;;;24.30;96.70;;;;;;4869033;29;20144;-83
2022/07/12 06:43:07;;;;;;;4.38;1.38;;;24.50;96.70;;;;;;4873244;29;20049;-85
2022/07/12 06:45:37;;;;;;;3.95;1.38;;;24.50;96.70;;;;;;4874308;29;20045;-85
2022/07/12 06:48:06;;;;;;;3.50;1.10;;;24.50;96.70;;;;;;4885240;29;20053;-86
2022/07/12 06:50:34;;;;;;;4.43;1.17;;;24.70;96.70;;;;;;4873974;29;20061;-86
2022/07/12 06:53:03;;;;;;;3.33;1.10;;;24.90;96.70;;;;;;4872514;29;20061;-84
2022/07/12 06:55:31;;;;;;;1.88;1.10;;;24.90;96.70;;;;;;4872920;29;20060;-83
2022/07/12 06:57:59;;;;;;;1.58;0.95;;;24.80;96.70;;;;;;4880086;29;20636;-80
2022/07/12 07:00:27;;;;;;;3.92;1.38;;;24.70;96.70;;;;;;4874530;29;20057;-84
2022/07/12 07:02:57;;;;;;;4.00;1.80;;;24.60;96.70;;;;;;4876554;29;20091;-83
2022/07/12 07:05:26;;;;;;;8.60;2.50;;;24.70;96.70;;;;;;4874592;29;20234;-82
2022/07/12 07:07:54;;;;;;;8.73;1.60;;;24.70;96.70;;;;;;4856193;29;20057;-84
2022/07/12 07:10:22;;;;;;;4.75;1.58;;;24.80;96.70;;;;;;4857079;29;20049;-84
2022/07/12 07:12:51;;;;;;;7.45;2.67;;;24.90;96.70;;;;;;4872802;29;20516;-84
2022/07/12 07:15:19;;;;;;;6.00;2.40;;;24.90;96.70;;;;;;4879324;29;20041;-84
2022/07/12 07:17:48;;;;;;;3.95;1.33;;;25.00;96.70;;;;;;4873663;29;20045;-84
2022/07/12 07:20:17;;;;;;;2.70;1.77;;;25.00;96.70;;;;;;4860878;29;20064;-82
2022/07/12 07:22:46;;;;;;;6.18;1.65;;;24.90;96.70;;;;;;4869804;29;20056;-84
2022/07/12 07:25:14;;;;;;;4.50;2.10;;;24.90;96.70;;;;;;4872809;29;20411;-85
2022/07/12 07:27:44;;;;;;;7.03;1.70;;;24.90;96.70;;;;;;4874552;29;20055;-87
2022/07/12 07:32:58;;;;;;;5.57;1.67;;;24.90;96.70;;;;;;4882582;29;20057;-83
2022/07/12 07:35:29;;;;;;;5.75;1.95;;;25.10;96.70;;;;;;4870328;29;20143;-83
2022/07/12 07:37:58;;;;;;;3.67;1.42;;;25.20;96.70;;;;;;4872632;29;20053;-83
2022/07/12 07:40:26;;;;;;;5.88;1.30;;;25.50;96.70;;;;;;4873827;29;20068;-84
2022/07/12 07:42:54;;;;;;;5.75;1.48;;;25.60;96.70;;;;;;4866871;29;20052;-84
2022/07/12 07:45:23;;;;;;;5.05;1.60;;;25.70;96.70;;;;;;4896891;29;20072;-84
2022/07/12 07:47:52;;;;;;;6.00;1.33;;;25.80;96.70;;;;;;4881030;29;20124;-83
2022/07/12 07:50:42;;;;;;;7.32;1.75;;;25.80;96.70;;;;;;4879165;29;20064;-85
2022/07/12 07:53:10;;;;;;;10.63;1.60;;;26.00;96.70;;;;;;4880390;29;20056;-84
2022/07/12 07:55:38;;;;;;;6.50;2.20;;;26.10;96.70;;;;;;4869716;29;20064;-85
2022/07/12 07:58:07;;;;;;;7.72;3.00;;;26.20;96.70;;;;;;4880326;29;20195;-87
2022/07/12 08:00:36;;;;;;;11.68;3.88;;;26.20;96.70;;;;;;4861580;29;20049;-87
2022/07/12 08:03:04;;;;;;;10.57;3.72;;;26.20;96.70;;;;;;4874746;29;20056;-84
2022/07/12 08:05:32;;;;;;;8.52;3.72;;;26.10;96.70;;;;;;4852834;29;20053;-84
2022/07/12 08:08:02;;;;;;;10.05;3.80;;;26.10;96.70;;;;;;4875847;29;20049;-85
2022/07/12 08:10:31;;;;;;;9.63;3.00;;;26.10;96.70;;;;;;4876741;29;20081;-84
2022/07/12 08:13:00;;;;;;;8.77;2.63;;;26.10;96.70;;;;;;4877663;29;20102;-84
2022/07/12 08:15:28;;;;;;;8.88;2.75;;;26.20;96.70;;;;;;4876920;29;20045;-85
2022/07/12 08:17:57;;;;;;;7.38;3.17;;;26.40;96.70;;;;;;4873401;29;20057;-85
2022/07/12 08:20:26;;;;;;;7.38;2.90;;;26.50;96.70;;;;;;4876440;29;20053;-84
2022/07/12 08:23:15;;;;;;;8.02;2.83;;;26.70;96.70;;;;;;4835917;29;20058;-84
2022/07/12 08:25:43;;;;;;;8.50;3.05;;;26.70;96.70;;;;;;4852947;29;20050;-85
2022/07/12 08:28:11;;;;;;;5.55;2.25;;;26.90;96.70;;;;;;4838635;29;20057;-85
2022/07/12 08:30:40;;;;;;;5.45;2.40;;;27.10;96.70;;;;;;4824212;29;20048;-84
2022/07/12 08:33:14;;;;;;;5.03;1.88;;;27.20;96.70;;;;;;4839121;29;20548;-84
2022/07/12 08:35:43;;;;;;;7.70;2.40;;;27.30;96.70;;;;;;4854576;29;20317;-85
2022/07/12 08:38:12;;;;;;;5.47;1.83;;;27.40;96.70;;;;;;4839456;29;20050;-83
2022/07/12 08:40:42;;;;;;;3.20;1.95;;;27.60;96.70;;;;;;4838036;29;20038;-84
2022/07/12 08:43:10;;;;;;;4.07;2.00;;;27.50;96.70;;;;;;4839545;29;20080;-83
2022/07/12 08:45:40;;;;;;;3.58;1.92;;;27.50;96.70;;;;;;4839121;29;20050;-84
2022/07/12 08:48:09;;;;;;;6.13;2.13;;;27.60;96.70;;;;;;4833350;29;20054;-82
2022/07/12 08:50:37;;;;;;;4.75;2.05;;;27.50;96.70;;;;;;4840483;29;20046;-83
2022/07/12 08:53:13;;;;;;;5.40;2.33;;;27.60;96.70;;;;;;4853728;29;20413;-82
2022/07/12 08:55:42;;;;;;;6.43;2.10;;;27.60;96.70;;;;;;4820331;29;20432;-86
2022/07/12 08:58:18;;;;;;;5.93;2.58;;;27.80;96.70;;;;;;4825781;29;20645;-83
2022/07/12 09:00:47;;;;;;;6.45;2.45;;;27.90;96.70;;;;;;4823482;29;20054;-85
2022/07/12 09:03:18;;;;;;;7.88;2.38;;;27.90;96.70;;;;;;4835783;29;20050;-84
2022/07/12 09:05:52;;;;;;;1.50;1.00;;;27.70;96.70;;;;;;4825283;29;20058;-84
2022/07/12 09:08:26;;;;;;;3.22;1.35;;;27.60;96.70;;;;;;4834349;29;20054;-85
2022/07/12 09:11:01;;;;;;;1.70;0.95;;;27.60;96.70;;;;;;4835600;29;20038;-88
2022/07/12 09:13:50;;;;;;;2.03;0.95;;;27.80;96.70;;;;;;4853332;29;20081;-84
2022/07/12 09:16:20;;;;;;;1.40;1.05;;;27.80;96.70;;;;;;4838038;29;20505;-84
2022/07/12 09:18:49;;;;;;;2.20;1.13;;;27.80;96.70;;;;;;4840466;29;20049;-84
2022/07/12 09:21:26;;;;;;;2.25;1.40;;;27.90;96.70;;;;;;4855252;29;20060;-84
2022/07/12 09:23:56;;;;;;;3.33;1.20;;;27.90;96.70;;;;;;4859203;29;20058;-85
2022/07/12 09:26:31;;;;;;;2.65;1.00;;;28.00;96.70;;;;;;4874998;29;20045;-83
2022/07/12 09:29:06;;;;;;;1.63;1.00;;;28.00;96.70;;;;;;4874673;29;20104;-84
2022/07/12 09:36:06;;;;;;;4.90;1.40;;;28.10;96.70;;;;;;4876538;29;20076;-83
2022/07/12 09:37:18;;;;;;;2.95;1.10;;;28.20;96.70;;;;;;4885149;29;20156;-85
2022/07/12 09:39:47;;;;;;;2.45;0.90;;;28.40;96.70;;;;;;4877718;29;20045;-84
2022/07/12 09:42:18;;;;;;;1.63;1.00;;;28.60;96.70;;;;;;4869599;29;20045;-84
2022/07/12 09:44:57;;;;;;;3.30;0.98;;;28.90;96.70;;;;;;4888286;29;20059;-85
2022/07/12 09:47:26;;;;;;;1.95;1.15;;;29.00;96.70;;;;;;4882197;29;20088;-85
2022/07/12 09:49:54;;;;;;;2.22;1.05;;;29.00;96.70;;;;;;4868168;29;20084;-86
2022/07/12 09:52:25;;;;;;;1.45;1.00;;;29.10;96.70;;;;;;4889202;29;20045;-87
2022/07/12 09:54:55;;;;;;;1.63;1.02;;;29.20;96.70;;;;;;4867708;29;20476;-83
2022/07/12 09:57:29;;;;;;;0.77;0.70;;;29.30;96.70;;;;;;4870012;29;20140;-82
2022/07/12 09:59:59;;;;;;;1.50;0.88;;;29.30;96.70;;;;;;4887864;29;20055;-83
2022/07/12 10:02:27;;;;;;;2.10;0.70;;;29.40;96.70;;;;;;4873592;29;20049;-84
2022/07/12 10:05:00;;;;;;;2.33;1.00;;;29.40;96.70;;;;;;4862379;29;20073;-83
2022/07/12 10:07:30;;;;;;;1.73;0.85;;;29.20;96.70;;;;;;4872417;29;20523;-82
2022/07/12 10:09:59;;;;;;;2.05;0.70;;;29.20;96.70;;;;;;4871577;29;20041;-82
2022/07/12 10:12:29;;;;;;;0.50;0.50;;;29.40;96.70;;;;;;4867786;29;20106;-80
2022/07/12 10:15:04;;;;;;;2.22;0.80;;;29.40;96.70;;;;;;4869569;29;20678;-79
2022/07/12 10:17:34;;;;;;;2.08;0.68;;;29.50;96.70;;;;;;4870247;29;20041;-79
2022/07/12 10:20:17;;;;;;;1.52;0.85;;;29.70;96.70;;;;;;4862728;29;20599;-79
2022/07/12 10:22:47;;;;;;;1.48;0.80;;;29.90;96.70;;;;;;4862151;29;20084;-79
2022/07/12 10:25:32;;;;;;;0.98;0.65;;;30.00;96.70;;;;;;4871056;29;20059;-82
2022/07/12 10:28:03;;;;;;;0.85;0.60;;;29.90;96.70;;;;;;4870028;29;20045;-82
2022/07/12 10:30:43;;;;;;;1.48;0.60;;;29.90;96.70;;;;;;4873068;29;20059;-86
2022/07/12 10:33:17;;;;;;;2.15;0.90;;;29.80;96.70;;;;;;4871564;29;20063;-84
2022/07/12 10:36:02;;;;;;;1.08;0.65;;;29.90;96.70;;;;;;4872239;29;20162;-82
2022/07/12 10:38:35;;;;;;;1.23;0.80;;;29.80;96.70;;;;;;4872413;29;20080;-82
2022/07/12 10:41:18;;;;;;;1.63;0.70;;;29.70;96.70;;;;;;4873228;29;20710;-80
2022/07/12 10:44:06;;;;;;;2.47;0.70;;;29.70;96.70;;;;;;4870604;29;20045;-77
2022/07/12 10:46:36;;;;;;;2.47;1.20;;;29.80;96.20;;;;;;4869186;29;20409;-77
2022/07/12 10:49:27;;;;;;;1.88;0.80;;;29.90;96.70;;;;;;4871992;29;20068;-80
2022/07/12 10:52:16;;;;;;;1.42;0.60;;;29.90;96.70;;;;;;4869295;29;20041;-80
2022/07/12 10:55:09;;;;;;;1.42;0.80;;;30.10;96.70;;;;;;4871413;29;20491;-80
2022/07/12 10:57:42;;;;;;;2.97;0.88;;;30.00;96.70;;;;;;4870656;29;20065;-84
2022/07/12 11:00:16;;;;;;;2.13;0.77;;;30.00;96.70;;;;;;4888993;29;20052;-85
2022/07/12 11:02:49;;;;;;;3.88;1.00;;;30.20;96.70;;;;;;4864748;29;20049;-84
2022/07/12 11:05:26;;;;;;;1.63;0.50;;;30.20;96.20;;;;;;4874286;29;20053;-85
2022/07/12 11:07:57;;;;;;;1.75;0.80;;;30.30;95.00;;;;;;4874237;29;20049;-84
2022/07/12 11:10:28;;;;;;;1.60;0.70;;;30.40;95.60;;;;;;4866622;29;20068;-85
2022/07/12 11:13:00;;;;;;;2.10;0.50;;;30.60;95.60;;;;;;4873431;29;20412;-84
2022/07/12 11:15:34;;;;;;;2.80;0.98;;;30.90;93.20;;;;;;4874507;29;20093;-84
2022/07/12 11:18:04;;;;;;;1.33;0.65;;;31.20;92.40;;;;;;4878876;29;20473;-81
2022/07/12 11:20:33;;;;;;;1.65;0.82;;;31.40;91.10;;;;;;4874664;29;20519;-82
2022/07/12 11:23:03;;;;;;;1.35;0.60;;;31.30;91.60;;;;;;4877011;29;20330;-81
2022/07/12 11:25:33;;;;;;;1.17;0.60;;;31.50;92.10;;;;;;4875171;29;20079;-82
2022/07/12 11:28:03;;;;;;;0.82;0.73;;;31.50;90.70;;;;;;4887556;29;20048;-81
2022/07/12 11:30:34;;;;;;;1.73;0.60;;;31.50;92.10;;;;;;4877557;29;20044;-84
2022/07/12 11:33:03;;;;;;;2.00;0.80;;;31.60;91.50;;;;;;4876886;29;20089;-84
2022/07/12 11:35:32;;;;;;;2.72;0.80;;;31.60;91.80;;;;;;4876543;29;20049;-84
2022/07/12 11:38:03;;;;;;;1.88;0.70;;;31.60;90.30;;;;;;4878083;29;20059;-84
2022/07/12 11:40:36;;;;;;;1.95;0.70;;;31.50;91.30;;;;;;4876624;29;20052;-85
2022/07/12 11:43:05;;;;;;;1.00;0.80;;;31.50;91.70;;;;;;4860899;29;20053;-84
2022/07/12 11:45:36;;;;;;;2.38;0.80;;;31.50;91.60;;;;;;4876439;29;20078;-83
2022/07/12 11:48:05;;;;;;;3.03;1.10;;;31.40;92.00;;;;;;4857873;29;20513;-84
2022/07/12 11:50:35;;;;;;;3.05;0.90;;;31.30;92.30;;;;;;4874580;29;20048;-84
2022/07/12 11:53:14;;;;;;;2.67;0.80;;;31.20;92.50;;;;;;4876502;29;20483;-84
2022/07/12 11:55:45;;;;;;;2.78;0.70;;;31.30;93.10;;;;;;4877035;29;20075;-84
2022/07/12 11:58:14;;;;;;;2.10;0.80;;;31.30;93.90;;;;;;4870210;29;20052;-84
2022/07/12 12:00:46;;;;;;;1.00;0.70;;;31.30;93.30;;;;;;4876021;29;20045;-84
2022/07/12 12:03:16;;;;;;;4.57;0.98;;;31.40;93.80;;;;;;4871477;29;20061;-84
2022/07/12 12:05:47;;;;;;;1.45;0.73;;;31.40;93.60;;;;;;4861002;29;20064;-85
2022/07/12 12:08:17;;;;;;;2.83;1.27;;;31.30;93.60;;;;;;4868706;29;20105;-85
2022/07/12 12:10:55;;;;;;;3.33;1.08;;;31.60;93.00;;;;;;4877390;29;20068;-84
2022/07/12 12:13:24;;;;;;;1.90;0.73;;;31.60;93.30;;;;;;4875766;29;20056;-84
2022/07/12 12:15:55;;;;;;;3.25;1.00;;;31.70;93.80;;;;;;4882894;29;20102;-84
2022/07/12 12:18:32;;;;;;;3.58;1.25;;;31.70;93.30;;;;;;4875713;29;20044;-84
2022/07/12 12:21:02;;;;;;;2.10;0.90;;;31.70;94.00;;;;;;4885792;29;20088;-84
2022/07/12 12:23:31;;;;;;;2.10;1.02;;;31.80;93.80;;;;;;4875476;29;20145;-85
2022/07/12 12:26:14;;;;;;;1.90;0.80;;;32.20;94.20;;;;;;4870760;29;20152;-85
2022/07/12 12:28:47;;;;;;;2.45;1.10;;;32.70;92.90;;;;;;4870404;29;20512;-85
2022/07/12 12:31:19;;;;;;;1.15;1.02;;;33.10;90.90;;;;;;4875011;29;20057;-85
2022/07/12 12:33:51;;;;;;;1.98;0.95;;;33.10;91.40;;;;;;4890553;29;20048;-85
2022/07/12 12:36:22;;;;;;;2.13;1.27;;;32.90;92.60;;;;;;4875582;29;20057;-85
2022/07/12 12:38:52;;;;;;;3.45;1.30;;;32.80;93.50;;;;;;4875448;29;20048;-82
2022/07/12 12:41:24;;;;;;;2.92;1.02;;;32.70;93.80;;;;;;4875345;29;20052;-83
2022/07/12 12:44:01;;;;;;;3.10;1.13;;;33.00;93.20;;;;;;4862232;29;20053;-83
2022/07/12 12:46:55;;;;;;;2.92;1.50;;;33.50;90.50;;;;;;4875467;29;20049;-83
2022/07/12 12:49:45;;;;;;;2.90;1.10;;;33.60;91.10;;;;;;4885763;29;20568;-82
2022/07/12 12:52:24;;;;;;;3.58;1.73;;;33.30;92.80;;;;;;4873049;29;20053;-83
2022/07/12 12:54:53;;;;;;;3.38;1.50;;;33.00;93.80;;;;;;4876867;29;20136;-83
2022/07/12 12:57:24;;;;;;;3.28;1.25;;;32.80;94.00;;;;;;4875158;29;20049;-82
2022/07/12 12:59:53;;;;;;;3.22;1.63;;;32.80;94.20;;;;;;4887346;29;20112;-84
2022/07/12 13:02:25;;;;;;;3.15;1.70;;;32.80;94.50;;;;;;4875123;29;20049;-84
2022/07/12 13:04:54;;;;;;;5.25;1.20;;;32.80;94.20;;;;;;4875180;29;20128;-84
2022/07/12 13:07:22;;;;;;;1.50;1.10;;;33.00;94.10;;;;;;4891849;29;20048;-84
2022/07/12 13:09:50;;;;;;;2.35;1.15;;;33.20;93.50;;;;;;4876719;29;20113;-84